createdAt,value
2018-03-16T00:01:52.120Z,95.20
2018-03-16T00:04:18.416Z,95.30
2018-03-16T00:06:44.544Z,95.30
2018-03-16T00:09:10.697Z,95.20
2018-03-16T00:11:36.816Z,95.10
2018-03-16T00:14:02.965Z,95.00
2018-03-16T00:16:29.171Z,95.10
2018-03-16T00:18:55.320Z,95.10
2018-03-16T00:21:21.430Z,95.30
2018-03-16T00:23:47.535Z,95.20
2018-03-16T00:26:13.692Z,95.20
2018-03-16T00:28:39.905Z,94.90
2018-03-16T00:31:06.096Z,95.10
2018-03-16T00:33:32.252Z,94.90
2018-03-16T00:35:59.160Z,94.80
2018-03-16T00:38:25.980Z,94.80
2018-03-16T00:40:52.082Z,94.80
2018-03-16T00:43:18.186Z,94.80
2018-03-16T00:45:44.305Z,94.90
2018-03-16T00:48:10.526Z,95.00
2018-03-16T00:50:36.666Z,95.10
2018-03-16T00:53:02.808Z,95.10
2018-03-16T00:55:29.039Z,94.90
2018-03-16T00:57:55.189Z,94.70
2018-03-16T01:00:21.409Z,94.70
2018-03-16T01:02:47.603Z,94.50
2018-03-16T01:05:13.740Z,94.70
2018-03-16T01:07:39.888Z,94.70
2018-03-16T01:10:06.036Z,94.90
2018-03-16T01:12:32.194Z,95.20
2018-03-16T01:17:31.284Z,95.70
2018-03-16T01:19:58.129Z,95.60
2018-03-16T01:22:24.978Z,95.80
2018-03-16T01:24:51.081Z,95.80
2018-03-16T01:27:17.208Z,95.80
2018-03-16T01:29:43.368Z,95.70
2018-03-16T01:32:09.493Z,95.50
2018-03-16T01:34:35.564Z,96.20
2018-03-16T01:37:01.688Z,96.00
2018-03-16T01:39:27.810Z,96.00
2018-03-16T01:41:53.912Z,96.30
2018-03-16T01:44:20.108Z,96.00
2018-03-16T01:46:47.024Z,96.10
2018-03-16T01:49:13.195Z,96.10
2018-03-16T01:51:39.326Z,96.20
2018-03-16T01:54:06.113Z,96.20
2018-03-16T01:56:32.274Z,96.20
2018-03-16T01:58:59.165Z,96.30
2018-03-16T02:01:25.325Z,96.30
2018-03-16T02:03:51.437Z,96.30
2018-03-16T02:06:17.596Z,96.30
2018-03-16T02:08:44.513Z,96.30
2018-03-16T02:11:10.612Z,96.30
2018-03-16T02:13:36.742Z,96.50
2018-03-16T02:16:02.892Z,96.50
2018-03-16T02:18:29.010Z,96.30
2018-03-16T02:20:55.109Z,96.70
2018-03-16T02:23:21.289Z,96.70
2018-03-16T02:25:47.395Z,96.70
2018-03-16T02:28:13.536Z,96.60
2018-03-16T02:30:39.648Z,96.80
2018-03-16T02:33:05.747Z,96.50
2018-03-16T02:35:31.837Z,96.90
2018-03-16T02:37:58.669Z,96.70
2018-03-16T02:40:24.720Z,96.70
2018-03-16T02:42:50.764Z,96.70
2018-03-16T02:45:16.833Z,96.30
2018-03-16T02:47:42.907Z,96.40
2018-03-16T02:50:08.960Z,96.40
2018-03-16T02:52:35.012Z,96.50
2018-03-16T02:55:01.797Z,96.60
2018-03-16T02:57:27.850Z,96.60
2018-03-16T02:59:53.903Z,96.50
2018-03-16T03:02:20.696Z,96.40
2018-03-16T03:04:46.757Z,96.30
2018-03-16T03:07:12.817Z,96.50
2018-03-16T03:09:38.862Z,96.20
2018-03-16T03:12:04.898Z,96.20
2018-03-16T03:14:30.946Z,96.30
2018-03-16T03:16:57.004Z,96.20
2018-03-16T03:19:23.052Z,95.90
2018-03-16T03:21:49.123Z,96.00
2018-03-16T03:24:15.151Z,96.00
2018-03-16T03:26:41.192Z,96.50
2018-03-16T03:29:07.969Z,96.10
2018-03-16T03:31:34.024Z,96.10
2018-03-16T03:34:00.055Z,96.00
2018-03-16T03:36:26.095Z,95.80
2018-03-16T03:38:52.140Z,96.00
2018-03-16T03:41:18.174Z,96.20
2018-03-16T03:43:44.220Z,96.00
2018-03-16T03:46:10.251Z,96.00
2018-03-16T03:48:36.305Z,96.10
2018-03-16T03:51:02.356Z,96.20
2018-03-16T03:53:29.153Z,96.40
2018-03-16T03:55:55.194Z,96.40
2018-03-16T03:58:21.245Z,96.40
2018-03-16T04:00:48.055Z,96.60
2018-03-16T04:03:14.113Z,96.60
2018-03-16T04:05:40.879Z,96.60
2018-03-16T04:08:07.002Z,96.60
2018-03-16T04:10:33.829Z,96.60
2018-03-16T04:12:59.878Z,96.60
2018-03-16T04:15:25.984Z,96.70
2018-03-16T04:17:52.063Z,97.00
2018-03-16T04:20:18.122Z,96.90
2018-03-16T04:22:44.191Z,96.70
2018-03-16T04:25:10.220Z,96.90
2018-03-16T04:27:36.321Z,96.80
2018-03-16T04:30:02.426Z,96.40
2018-03-16T04:32:28.505Z,96.50
2018-03-16T04:34:54.571Z,96.70
2018-03-16T04:37:20.654Z,96.80
2018-03-16T04:39:46.708Z,96.70
2018-03-16T04:42:13.511Z,96.60
2018-03-16T04:44:39.543Z,96.60
2018-03-16T04:47:05.607Z,96.70
2018-03-16T04:49:32.410Z,96.50
2018-03-16T04:51:58.478Z,96.50
2018-03-16T04:54:24.518Z,96.60
2018-03-16T04:56:50.552Z,96.60
2018-03-16T04:59:17.369Z,96.90
2018-03-16T05:01:44.152Z,96.80
2018-03-16T05:04:10.197Z,96.70
2018-03-16T05:06:36.261Z,96.70
2018-03-16T05:09:02.336Z,96.70
2018-03-16T05:11:28.367Z,96.60
2018-03-16T05:13:54.424Z,96.90
2018-03-16T05:16:21.245Z,96.60
2018-03-16T05:18:47.298Z,96.50
2018-03-16T05:21:13.351Z,96.40
2018-03-16T05:23:39.404Z,96.50
2018-03-16T05:26:05.470Z,96.60
2018-03-16T05:28:31.540Z,96.40
2018-03-16T05:30:57.571Z,96.60
2018-03-16T05:33:23.641Z,96.60
2018-03-16T05:35:49.689Z,96.80
2018-03-16T05:38:15.748Z,96.70
2018-03-16T05:40:41.801Z,96.80
2018-03-16T05:43:08.592Z,96.70
2018-03-16T05:45:34.646Z,96.60
2018-03-16T05:48:00.733Z,96.50
2018-03-16T05:50:26.815Z,96.60
2018-03-16T05:52:53.585Z,97.10
2018-03-16T05:55:19.628Z,97.00
2018-03-16T05:57:45.672Z,96.70
2018-03-16T06:00:11.780Z,96.60
2018-03-16T06:02:37.839Z,96.80
2018-03-16T06:05:03.873Z,96.80
2018-03-16T06:07:30.680Z,96.80
2018-03-16T06:09:56.708Z,96.80
2018-03-16T06:12:22.794Z,96.60
2018-03-16T06:14:48.843Z,96.60
2018-03-16T06:17:14.879Z,96.70
2018-03-16T06:19:40.920Z,96.80
2018-03-16T06:22:06.954Z,96.70
2018-03-16T06:24:32.987Z,96.40
2018-03-16T06:26:59.784Z,96.40
2018-03-16T06:29:25.803Z,96.40
2018-03-16T06:31:51.837Z,96.40
2018-03-16T06:34:17.890Z,96.20
2018-03-16T06:36:43.925Z,96.20
2018-03-16T06:39:10.704Z,96.30
2018-03-16T06:41:36.731Z,96.30
2018-03-16T06:44:03.563Z,96.90
2018-03-16T06:46:29.595Z,96.90
2018-03-16T06:48:55.648Z,96.70
2018-03-16T06:51:21.677Z,96.50
2018-03-16T06:53:47.770Z,96.30
2018-03-16T06:56:13.919Z,96.30
2018-03-16T06:58:40.658Z,96.50
2018-03-16T07:01:06.719Z,96.40
2018-03-16T07:03:33.507Z,96.80
2018-03-16T07:05:59.569Z,96.80
2018-03-16T07:08:25.632Z,97.10
2018-03-16T07:10:51.666Z,97.00
2018-03-16T07:13:17.699Z,96.40
2018-03-16T07:15:43.753Z,96.20
2018-03-16T07:18:09.794Z,96.20
2018-03-16T07:20:35.823Z,96.10
2018-03-16T07:23:01.880Z,95.60
2018-03-16T07:25:27.914Z,95.90
2018-03-16T07:27:53.955Z,95.30
2018-03-16T07:30:25.979Z,95.60
2018-03-16T07:32:52.094Z,95.30
2018-03-16T07:35:18.142Z,95.40
2018-03-16T07:37:44.277Z,95.30
2018-03-16T07:40:10.420Z,95.30
2018-03-16T07:42:37.260Z,95.20
2018-03-16T07:45:04.072Z,95.70
2018-03-16T07:47:30.128Z,95.70
2018-03-16T07:49:56.924Z,96.10
2018-03-16T07:52:22.977Z,96.10
2018-03-16T07:54:49.044Z,96.10
2018-03-16T07:57:15.144Z,95.90
2018-03-16T07:59:42.008Z,95.90
2018-03-16T08:02:08.093Z,96.00
2018-03-16T08:04:34.160Z,95.90
2018-03-16T08:07:00.240Z,96.10
2018-03-16T08:09:26.285Z,95.90
2018-03-16T08:11:53.088Z,96.40
2018-03-16T08:14:19.152Z,96.40
2018-03-16T08:16:45.948Z,96.20
2018-03-16T08:19:12.098Z,96.20
2018-03-16T08:21:38.251Z,96.00
2018-03-16T08:24:04.381Z,95.80
2018-03-16T08:26:30.498Z,95.90
2018-03-16T08:28:56.603Z,95.90
2018-03-16T08:31:22.729Z,95.90
2018-03-16T08:33:48.856Z,95.70
2018-03-16T08:36:14.960Z,95.90
2018-03-16T08:38:41.089Z,95.80
2018-03-16T08:41:07.230Z,95.90
2018-03-16T08:43:33.445Z,95.40
2018-03-16T08:45:59.641Z,95.90
2018-03-16T08:48:25.801Z,95.50
2018-03-16T08:50:51.973Z,95.90
2018-03-16T08:53:18.103Z,96.00
2018-03-16T08:55:44.244Z,96.10
2018-03-16T08:58:10.403Z,96.20
2018-03-16T09:00:36.579Z,96.50
2018-03-16T09:03:02.746Z,96.60
2018-03-16T09:05:28.909Z,96.70
2018-03-16T09:07:55.841Z,96.40
2018-03-16T09:10:22.036Z,96.40
2018-03-16T09:12:48.210Z,96.10
2018-03-16T09:15:15.158Z,96.40
2018-03-16T09:17:42.152Z,96.70
2018-03-16T09:20:08.345Z,96.70
2018-03-16T09:22:35.212Z,96.10
2018-03-16T09:25:01.374Z,96.10
2018-03-16T09:27:27.509Z,96.10
2018-03-16T09:29:53.645Z,96.50
2018-03-16T09:32:19.766Z,96.10
2018-03-16T09:34:45.950Z,96.40
2018-03-16T09:37:12.191Z,95.50
2018-03-16T09:39:38.371Z,95.40
2018-03-16T09:42:04.536Z,95.10
2018-03-16T09:44:30.709Z,95.60
2018-03-16T09:46:56.841Z,94.90
2018-03-16T09:49:22.952Z,95.00
2018-03-16T09:51:50.034Z,94.90
2018-03-16T09:54:16.180Z,94.40
2018-03-16T09:56:42.267Z,94.80
2018-03-16T09:59:09.125Z,95.30
2018-03-16T10:01:35.984Z,95.40
2018-03-16T10:04:02.202Z,95.30
2018-03-16T10:06:28.400Z,94.40
2018-03-16T10:08:54.557Z,94.20
2018-03-16T10:11:20.752Z,93.80
2018-03-16T10:13:46.907Z,94.70
2018-03-16T10:16:13.074Z,93.00
2018-03-16T10:18:39.322Z,93.10
2018-03-16T10:21:05.497Z,93.30
2018-03-16T10:23:31.629Z,93.50
2018-03-16T10:25:57.775Z,92.40
2018-03-16T10:28:23.906Z,92.00
2018-03-16T10:30:50.048Z,92.10
2018-03-16T10:33:16.248Z,92.30
2018-03-16T10:35:42.436Z,92.10
2018-03-16T10:38:08.568Z,92.10
2018-03-16T10:40:35.477Z,92.90
2018-03-16T10:43:01.666Z,92.90
2018-03-16T10:45:27.765Z,93.90
2018-03-16T10:47:54.605Z,93.40
2018-03-16T10:50:21.525Z,93.30
2018-03-16T10:52:47.668Z,93.30
2018-03-16T10:55:14.507Z,92.80
2018-03-16T10:57:40.854Z,92.80
2018-03-16T11:00:07.780Z,92.70
2018-03-16T11:02:40.090Z,92.60
2018-03-16T11:05:12.272Z,93.00
2018-03-16T11:08:06.634Z,92.30
2018-03-16T11:10:32.721Z,92.90
2018-03-16T11:12:58.884Z,91.60
2018-03-16T11:15:25.089Z,91.40
2018-03-16T11:17:52.006Z,91.30
2018-03-16T11:20:18.210Z,91.30
2018-03-16T11:22:44.763Z,91.80
2018-03-16T11:25:10.990Z,91.80
2018-03-16T11:27:37.248Z,92.40
2018-03-16T11:30:03.325Z,92.00
2018-03-16T11:32:29.444Z,92.10
2018-03-16T11:34:55.639Z,91.90
2018-03-16T11:37:22.480Z,90.90
2018-03-16T11:39:49.346Z,90.90
2018-03-16T11:42:16.214Z,90.70
2018-03-16T11:44:42.350Z,91.10
2018-03-16T11:47:08.517Z,90.80
2018-03-16T11:49:34.628Z,91.00
2018-03-16T11:52:00.805Z,90.50
2018-03-16T11:54:26.957Z,88.30
2018-03-16T11:56:53.125Z,88.50
2018-03-16T11:59:20.013Z,88.90
2018-03-16T12:01:46.186Z,88.80
2018-03-16T12:04:13.065Z,89.10
2018-03-16T12:06:39.212Z,89.10
2018-03-16T12:09:05.318Z,90.10
2018-03-16T12:11:31.463Z,91.50
2018-03-16T12:13:57.565Z,91.40
2018-03-16T12:16:24.433Z,91.30
2018-03-16T12:18:50.547Z,91.30
2018-03-16T12:21:16.690Z,92.90
2018-03-16T12:23:42.799Z,93.60
2018-03-16T12:26:08.936Z,95.10
2018-03-16T12:28:49.522Z,95.50
2018-03-16T12:31:01.881Z,97.00
2018-03-16T12:33:27.999Z,96.90
2018-03-16T12:35:54.136Z,96.50
2018-03-16T12:38:20.266Z,97.30
2018-03-16T12:40:46.445Z,93.40
2018-03-16T12:43:12.662Z,92.50
2018-03-16T12:45:38.802Z,90.10
2018-03-16T12:48:04.887Z,90.30
2018-03-16T12:50:31.094Z,89.20
2018-03-16T12:52:57.219Z,82.50
2018-03-16T12:55:23.346Z,80.00
2018-03-16T12:57:49.472Z,84.70
2018-03-16T13:00:15.620Z,87.80
2018-03-16T13:02:41.785Z,89.50
2018-03-16T13:05:07.973Z,88.00
2018-03-16T13:07:34.104Z,88.00
2018-03-16T13:10:00.285Z,86.90
2018-03-16T13:12:27.153Z,81.10
2018-03-16T13:14:53.291Z,81.00
2018-03-16T13:17:19.453Z,80.90
2018-03-16T13:19:45.662Z,83.10
2018-03-16T13:22:11.781Z,82.50
2018-03-16T13:24:37.964Z,83.70
2018-03-16T13:27:04.933Z,81.80
2018-03-16T13:29:31.078Z,81.80
2018-03-16T13:31:57.209Z,81.50
2018-03-16T13:34:23.413Z,82.40
2018-03-16T13:36:49.633Z,83.90
2018-03-16T13:39:15.846Z,78.80
2018-03-16T13:41:42.775Z,76.80
2018-03-16T13:44:08.977Z,76.80
2018-03-16T13:46:35.122Z,76.30
2018-03-16T13:49:01.370Z,74.70
2018-03-16T13:51:28.350Z,64.10
2018-03-16T13:53:54.562Z,64.10
2018-03-16T13:56:20.715Z,63.30
2018-03-16T13:58:46.856Z,61.40
2018-03-16T14:01:13.001Z,57.80
2018-03-16T14:03:39.177Z,60.00
2018-03-16T14:06:05.300Z,60.60
2018-03-16T14:08:31.471Z,63.00
2018-03-16T14:10:57.672Z,63.30
2018-03-16T14:13:23.813Z,64.30
2018-03-16T14:15:49.968Z,65.60
2018-03-16T14:18:16.090Z,67.50
2018-03-16T14:20:42.248Z,68.80
2018-03-16T14:23:09.142Z,70.80
2018-03-16T14:25:35.301Z,70.80
2018-03-16T14:28:01.500Z,68.60
2018-03-16T14:30:27.685Z,68.40
2018-03-16T14:32:53.928Z,69.40
2018-03-16T14:35:20.054Z,70.80
2018-03-16T14:37:46.173Z,70.50
2018-03-16T14:40:12.350Z,71.80
2018-03-16T14:42:38.511Z,73.40
2018-03-16T14:45:04.678Z,73.70
2018-03-16T14:47:30.811Z,74.90
2018-03-16T14:49:57.049Z,75.70
2018-03-16T14:52:23.190Z,73.30
2018-03-16T14:54:49.363Z,74.30
2018-03-16T14:57:15.494Z,73.50
2018-03-16T14:59:41.714Z,73.20
2018-03-16T15:02:07.907Z,73.50
2018-03-16T15:04:34.076Z,73.90
2018-03-16T15:07:00.948Z,76.50
2018-03-16T15:09:27.120Z,78.30
2018-03-16T15:11:53.273Z,76.30
2018-03-16T15:14:19.413Z,76.30
2018-03-16T15:16:45.585Z,74.10
2018-03-16T15:19:11.786Z,73.10
2018-03-16T15:21:37.981Z,72.10
2018-03-16T15:24:04.105Z,73.90
2018-03-16T15:26:30.270Z,75.10
2018-03-16T15:28:56.421Z,77.00
2018-03-16T15:31:23.360Z,77.60
2018-03-16T15:33:49.597Z,76.40
2018-03-16T15:36:15.801Z,74.40
2018-03-16T15:38:42.105Z,72.00
2018-03-16T15:41:08.350Z,66.90
2018-03-16T15:43:34.545Z,54.90
2018-03-16T15:46:00.677Z,52.40
2018-03-16T15:48:26.864Z,53.20
2018-03-16T15:50:53.025Z,54.00
2018-03-16T15:53:19.132Z,54.20
2018-03-16T15:55:45.303Z,55.30
2018-03-16T15:58:11.417Z,56.80
2018-03-16T16:00:37.554Z,56.20
2018-03-16T16:03:03.656Z,57.20
2018-03-16T16:05:29.821Z,55.70
2018-03-16T16:07:55.925Z,56.70
2018-03-16T16:10:22.073Z,55.70
2018-03-16T16:12:48.233Z,56.80
2018-03-16T16:15:14.363Z,56.60
2018-03-16T16:17:40.530Z,56.00
2018-03-16T16:20:06.757Z,57.20
2018-03-16T16:22:32.889Z,58.10
2018-03-16T16:24:59.025Z,57.30
2018-03-16T16:27:25.225Z,57.30
2018-03-16T16:29:51.359Z,58.40
2018-03-16T16:32:17.550Z,59.20
2018-03-16T16:34:43.732Z,57.00
2018-03-16T16:37:09.913Z,55.60
2018-03-16T16:39:36.080Z,56.20
2018-03-16T16:42:02.236Z,59.10
2018-03-16T16:44:28.441Z,60.40
2018-03-16T16:46:54.576Z,63.50
2018-03-16T16:49:20.708Z,66.80
2018-03-16T16:51:46.986Z,67.20
2018-03-16T16:54:13.049Z,67.40
2018-03-16T16:56:39.257Z,66.30
2018-03-16T16:59:05.437Z,67.10
2018-03-16T17:01:32.358Z,67.40
2018-03-16T17:03:58.550Z,67.40
2018-03-16T17:06:24.744Z,66.50
2018-03-16T17:08:51.633Z,67.30
2018-03-16T17:11:17.914Z,67.30
2018-03-16T17:13:44.082Z,67.80
2018-03-16T17:16:10.264Z,67.70
2018-03-16T17:18:37.155Z,68.20
2018-03-16T17:21:03.341Z,68.10
2018-03-16T17:23:30.218Z,66.40
2018-03-16T17:25:56.452Z,66.30
2018-03-16T17:28:22.660Z,65.80
2018-03-16T17:30:48.910Z,64.90
2018-03-16T17:33:15.144Z,63.40
2018-03-16T17:35:41.368Z,62.40
2018-03-16T17:38:07.585Z,61.70
2018-03-16T17:40:33.826Z,62.20
2018-03-16T17:42:59.953Z,64.80
2018-03-16T17:45:26.132Z,65.10
2018-03-16T17:47:53.037Z,72.00
2018-03-16T17:50:19.155Z,72.00
2018-03-16T17:52:45.480Z,73.00
2018-03-16T17:55:11.680Z,73.70
2018-03-16T17:57:38.646Z,77.40
2018-03-16T18:00:04.848Z,77.40
2018-03-16T18:02:30.996Z,77.00
2018-03-16T18:04:57.130Z,77.80
2018-03-16T18:07:23.251Z,78.30
2018-03-16T18:09:49.399Z,80.00
2018-03-16T18:12:15.574Z,80.10
2018-03-16T18:14:41.783Z,80.80
2018-03-16T18:17:07.874Z,81.80
2018-03-16T18:19:34.056Z,80.60
2018-03-16T18:22:00.997Z,81.90
2018-03-16T18:24:27.867Z,80.60
2018-03-16T18:26:54.008Z,80.60
2018-03-16T18:29:20.232Z,82.90
2018-03-16T18:31:46.456Z,83.70
2018-03-16T18:34:12.650Z,85.60
2018-03-16T18:36:39.557Z,86.40
2018-03-16T18:39:05.708Z,86.40
2018-03-16T18:41:31.906Z,87.80
2018-03-16T18:43:58.061Z,88.90
2018-03-16T18:46:24.243Z,88.60
2018-03-16T18:48:50.374Z,89.00
2018-03-16T18:51:16.537Z,89.50
2018-03-16T18:53:42.690Z,90.20
2018-03-16T18:56:09.585Z,90.60
2018-03-16T18:58:35.718Z,90.60
2018-03-16T19:01:01.937Z,91.00
2018-03-16T19:03:28.056Z,91.10
2018-03-16T19:05:54.226Z,91.40
2018-03-16T19:08:21.064Z,91.70
2018-03-16T19:10:47.980Z,92.20
2018-03-16T19:13:14.104Z,92.20
2018-03-16T19:15:40.307Z,92.20
2018-03-16T19:18:06.537Z,92.30
2018-03-16T19:20:32.673Z,92.30
2018-03-16T19:22:58.848Z,93.10
2018-03-16T19:25:25.770Z,93.20
2018-03-16T19:27:51.955Z,93.20
2018-03-16T19:30:18.085Z,93.40
2018-03-16T19:32:44.313Z,93.40
2018-03-16T19:35:10.457Z,93.50
2018-03-16T19:37:36.668Z,93.50
2018-03-16T19:40:02.809Z,93.20
2018-03-16T19:42:28.936Z,93.80
2018-03-16T19:44:55.104Z,93.70
2018-03-16T19:47:22.054Z,94.10
2018-03-16T19:49:49.011Z,93.80
2018-03-16T19:52:15.879Z,94.00
2018-03-16T19:54:42.098Z,94.00
2018-03-16T19:57:08.248Z,94.10
2018-03-16T19:59:34.421Z,94.20
2018-03-16T20:02:01.377Z,93.50
2018-03-16T20:04:28.281Z,93.40
2018-03-16T20:06:54.432Z,93.40
2018-03-16T20:09:20.568Z,93.20
2018-03-16T20:11:47.477Z,95.00
2018-03-16T20:14:13.653Z,95.00
2018-03-16T20:16:40.532Z,96.40
2018-03-16T20:19:06.661Z,96.40
2018-03-16T20:21:32.864Z,95.60
2018-03-16T20:23:59.017Z,94.20
2018-03-16T20:26:25.173Z,95.40
2018-03-16T20:28:51.261Z,96.10
2018-03-16T20:31:17.401Z,96.70
2018-03-16T20:33:43.593Z,96.70
2018-03-16T20:36:09.785Z,97.10
2018-03-16T20:38:35.919Z,97.20
2018-03-16T20:41:02.818Z,97.40
2018-03-16T20:43:29.020Z,97.30
2018-03-16T20:45:55.216Z,97.80
2018-03-16T20:48:21.308Z,98.20
2018-03-16T20:50:47.452Z,97.60
2018-03-16T20:53:13.597Z,97.90
2018-03-16T20:55:39.814Z,97.20
2018-03-16T20:58:06.770Z,97.30
2018-03-16T21:00:32.926Z,97.30
2018-03-16T21:02:59.017Z,97.80
2018-03-16T21:05:25.152Z,97.80
2018-03-16T21:07:51.281Z,97.90
2018-03-16T21:10:18.141Z,98.20
2018-03-16T21:12:45.008Z,98.50
2018-03-16T21:15:11.136Z,98.50
2018-03-16T21:17:37.268Z,98.30
2018-03-16T21:20:03.416Z,98.50
2018-03-16T21:22:29.493Z,98.60
2018-03-16T21:24:55.596Z,98.00
2018-03-16T21:27:22.480Z,98.40
2018-03-16T21:29:48.613Z,98.40
2018-03-16T21:32:14.730Z,98.60
2018-03-16T21:34:40.832Z,98.70
2018-03-16T21:37:07.730Z,99.20
2018-03-16T21:39:33.855Z,99.20
2018-03-16T21:42:00.008Z,99.30
2018-03-16T21:44:26.149Z,99.30
2018-03-16T21:46:52.997Z,99.70
2018-03-16T21:49:19.147Z,99.60
2018-03-16T21:51:45.290Z,99.30
2018-03-16T21:54:11.409Z,99.50
2018-03-16T21:56:37.572Z,99.70
2018-03-16T21:59:03.701Z,99.70
2018-03-16T22:01:29.908Z,99.30
2018-03-16T22:03:55.996Z,99.60
2018-03-16T22:06:22.138Z,99.90
2018-03-16T22:08:48.332Z,99.70
2018-03-16T22:11:15.229Z,99.00
2018-03-16T22:13:41.410Z,99.00
2018-03-16T22:16:07.528Z,98.20
2018-03-16T22:18:34.450Z,99.10
2018-03-16T22:21:01.329Z,99.20
2018-03-16T22:23:27.407Z,99.20
2018-03-16T22:25:53.703Z,99.30
2018-03-16T22:28:19.836Z,99.20
2018-03-16T22:30:45.958Z,99.50
2018-03-16T22:33:12.133Z,99.10
2018-03-16T22:35:38.489Z,99.10
2018-03-16T22:38:05.412Z,99.40
2018-03-16T22:40:32.281Z,98.80
2018-03-16T22:42:58.413Z,98.80
2018-03-16T22:45:24.488Z,99.20
2018-03-16T22:47:50.614Z,99.40
2018-03-16T22:50:16.705Z,99.90
2018-03-16T22:52:42.821Z,99.90
2018-03-16T22:55:08.944Z,99.90
2018-03-16T22:57:35.062Z,99.90
2018-03-16T23:00:01.190Z,99.90
2018-03-16T23:02:27.309Z,99.90
2018-03-16T23:04:53.421Z,99.90
2018-03-16T23:07:20.331Z,99.90
2018-03-16T23:09:46.492Z,99.90
2018-03-16T23:12:13.364Z,99.90
2018-03-16T23:14:39.453Z,99.90
2018-03-16T23:17:06.357Z,99.50
2018-03-16T23:19:32.531Z,99.50
2018-03-16T23:21:58.673Z,99.00
2018-03-16T23:24:24.862Z,99.00
2018-03-16T23:26:51.016Z,99.10
2018-03-16T23:29:17.116Z,99.60
2018-03-16T23:31:43.247Z,99.50
2018-03-16T23:34:09.396Z,99.40
2018-03-16T23:36:35.534Z,99.70
2018-03-16T23:39:01.683Z,99.40
2018-03-16T23:41:27.885Z,99.50
2018-03-16T23:43:54.005Z,99.90
2018-03-16T23:46:20.124Z,99.90
2018-03-16T23:48:46.288Z,99.90
2018-03-16T23:51:12.381Z,99.90
2018-03-16T23:53:38.538Z,99.80
2018-03-16T23:56:04.666Z,99.80
2018-03-16T23:58:30.761Z,99.50
